Time;durP1;ratioP1;P1;durP2;ratioP2;P2;SDS_P1;SDS_P2;PMS_P1;PMS_P2;Temp;Humidity;BMP_temperature;BMP_pressure;BME280_temperature;BME280_humidity;BME280_pressure;Samples;Min_cycle;Max_cycle;Signal;HPM_P1;HPM_P2
2023/04/20 00:01:22;;;;;;;2.25;1.98;;;14.60;57.00;;;;;;5147542;27;45354;-78
2023/04/20 00:03:50;;;;;;;2.55;1.80;;;14.60;57.00;;;;;;5147348;27;45264;-78
2023/04/20 00:06:20;;;;;;;2.45;1.95;;;14.60;57.00;;;;;;5147902;27;45347;-78
2023/04/20 00:08:47;;;;;;;2.80;1.83;;;14.60;57.00;;;;;;5147870;27;45499;-78
2023/04/20 00:11:14;;;;;;;1.88;1.77;;;14.50;57.00;;;;;;5147533;27;45997;-78
2023/04/20 00:13:40;;;;;;;1.90;1.80;;;14.50;56.90;;;;;;5147772;27;45361;-78
2023/04/20 00:16:08;;;;;;;1.95;1.75;;;14.50;56.90;;;;;;5148367;27;45323;-77
2023/04/20 00:18:34;;;;;;;2.45;2.17;;;14.50;56.90;;;;;;5150444;27;46165;-77
2023/04/20 00:21:02;;;;;;;2.85;2.08;;;14.50;56.90;;;;;;5151273;27;45287;-78
2023/04/20 00:23:30;;;;;;;2.45;1.88;;;14.50;57.40;;;;;;5151620;27;45189;-77
2023/04/20 00:25:57;;;;;;;2.50;1.90;;;14.50;56.80;;;;;;5151389;27;45497;-78
2023/04/20 00:28:23;;;;;;;2.22;1.80;;;14.50;56.90;;;;;;5150915;27;45334;-78
2023/04/20 00:30:50;;;;;;;2.45;1.85;;;14.50;56.80;;;;;;5151292;27;45343;-78
2023/04/20 00:33:17;;;;;;;2.05;1.70;;;14.50;56.80;;;;;;5151802;27;45351;-78
2023/04/20 00:35:44;;;;;;;2.63;1.88;;;14.50;56.80;;;;;;5151575;27;45245;-78
2023/04/20 00:38:11;;;;;;;1.70;1.60;;;14.50;56.80;;;;;;5150728;27;46736;-77
2023/04/20 00:40:39;;;;;;;2.08;1.80;;;14.40;56.80;;;;;;5151201;27;45452;-77
2023/04/20 00:43:12;;;;;;;2.28;1.77;;;14.40;56.80;;;;;;5151177;27;45264;-78
2023/04/20 00:45:38;;;;;;;2.15;1.38;;;14.40;56.70;;;;;;5150956;27;45359;-79
2023/04/20 00:48:06;;;;;;;1.98;1.60;;;14.40;56.70;;;;;;5150136;27;46343;-78
2023/04/20 00:50:32;;;;;;;2.72;1.80;;;14.40;56.70;;;;;;5151063;27;45183;-78
2023/04/20 00:52:59;;;;;;;1.63;1.52;;;14.40;56.70;;;;;;5151057;27;45262;-78
2023/04/20 00:55:26;;;;;;;3.38;1.80;;;14.40;56.70;;;;;;5151481;27;45345;-77
2023/04/20 00:57:54;;;;;;;2.40;1.88;;;14.40;56.70;;;;;;5150819;27;46675;-78
2023/04/20 01:00:21;;;;;;;1.67;1.58;;;14.40;56.70;;;;;;5150580;27;45402;-78
2023/04/20 01:02:48;;;;;;;1.77;1.60;;;14.30;56.70;;;;;;5150556;27;45296;-78
2023/04/20 01:05:15;;;;;;;1.58;1.42;;;14.30;56.70;;;;;;5151539;27;45337;-78
2023/04/20 01:07:42;;;;;;;2.17;1.77;;;14.30;56.70;;;;;;5149863;27;46272;-78
2023/04/20 01:10:09;;;;;;;1.70;1.60;;;14.30;56.70;;;;;;5150023;27;45389;-79
2023/04/20 01:12:36;;;;;;;1.70;1.52;;;14.30;56.70;;;;;;5150482;27;45450;-78
2023/04/20 01:15:05;;;;;;;2.65;1.75;;;14.30;56.70;;;;;;5150431;27;45403;-79
2023/04/20 01:17:32;;;;;;;1.60;1.50;;;14.30;56.70;;;;;;5149939;27;45785;-79
2023/04/20 01:19:59;;;;;;;2.05;1.85;;;14.30;56.60;;;;;;5149796;27;45389;-78
2023/04/20 01:22:27;;;;;;;1.73;1.63;;;14.30;56.60;;;;;;5150006;27;45349;-78
2023/04/20 01:24:54;;;;;;;1.67;1.58;;;14.20;56.60;;;;;;5150056;27;45465;-79
2023/04/20 01:27:21;;;;;;;1.83;1.50;;;14.20;56.60;;;;;;5149519;27;46408;-78
2023/04/20 01:29:48;;;;;;;2.00;1.80;;;14.20;56.50;;;;;;5149202;27;45412;-78
2023/04/20 01:32:15;;;;;;;2.35;1.85;;;14.30;56.60;;;;;;5149339;27;45358;-78
2023/04/20 01:34:41;;;;;;;1.33;1.30;;;14.30;56.60;;;;;;5149897;27;45370;-79
2023/04/20 01:37:08;;;;;;;1.52;1.40;;;14.20;56.50;;;;;;5149489;27;45491;-78
2023/04/20 01:39:37;;;;;;;1.98;1.77;;;14.20;56.60;;;;;;5149404;27;45261;-78
2023/04/20 01:42:04;;;;;;;1.67;1.33;;;14.20;56.60;;;;;;5149744;27;45230;-78
2023/04/20 01:44:31;;;;;;;1.90;1.70;;;14.20;56.50;;;;;;5149480;27;45361;-78
2023/04/20 01:46:58;;;;;;;1.40;1.30;;;14.20;56.60;;;;;;5149209;27;46755;-78
2023/04/20 01:49:25;;;;;;;1.70;1.60;;;14.20;56.50;;;;;;5149270;27;45346;-78
2023/04/20 01:51:52;;;;;;;1.70;1.60;;;14.20;56.50;;;;;;5149303;27;45292;-79
2023/04/20 01:54:19;;;;;;;1.52;1.42;;;14.20;56.50;;;;;;5149464;27;45333;-79
2023/04/20 01:56:47;;;;;;;1.83;1.70;;;14.10;56.40;;;;;;5149338;27;45470;-79
2023/04/20 01:59:14;;;;;;;1.50;1.30;;;14.10;56.40;;;;;;5149251;27;45278;-79
2023/04/20 02:01:40;;;;;;;1.73;1.63;;;14.10;56.40;;;;;;5149475;27;45228;-79
2023/04/20 02:04:07;;;;;;;1.63;1.52;;;14.10;56.40;;;;;;5149720;27;45489;-78
2023/04/20 02:06:34;;;;;;;2.08;1.88;;;14.10;56.40;;;;;;5149333;27;46950;-77
2023/04/20 02:09:01;;;;;;;1.67;1.58;;;14.10;56.40;;;;;;5149619;27;45311;-78
2023/04/20 02:11:28;;;;;;;2.00;1.75;;;14.10;56.50;;;;;;5149199;27;45294;-77
2023/04/20 02:13:56;;;;;;;1.77;1.67;;;14.10;56.50;;;;;;5150004;27;45141;-80
2023/04/20 02:16:23;;;;;;;2.17;1.80;;;14.10;56.40;;;;;;5149522;27;45909;-78
2023/04/20 02:18:50;;;;;;;2.20;1.30;;;14.10;56.50;;;;;;5149551;27;45370;-78
2023/04/20 02:21:17;;;;;;;2.40;1.40;;;14.10;56.40;;;;;;5149608;27;45402;-78
2023/04/20 02:23:43;;;;;;;1.52;1.42;;;14.10;56.50;;;;;;5149973;27;45447;-78
2023/04/20 02:26:10;;;;;;;2.05;1.83;;;14.10;56.40;;;;;;5149366;27;45555;-77
2023/04/20 02:28:37;;;;;;;1.35;1.15;;;14.10;56.40;;;;;;5149495;27;45267;-75
2023/04/20 02:31:05;;;;;;;1.58;1.48;;;14.00;56.30;;;;;;5149655;27;45270;-78
2023/04/20 02:33:32;;;;;;;2.42;1.50;;;14.00;56.40;;;;;;5151577;27;45407;-78
2023/04/20 02:35:59;;;;;;;1.52;1.42;;;14.00;56.40;;;;;;5150521;27;45555;-78
2023/04/20 02:38:26;;;;;;;1.42;1.33;;;14.00;56.40;;;;;;5152704;27;45258;-78
2023/04/20 02:40:53;;;;;;;1.60;1.38;;;14.00;56.40;;;;;;5151298;27;45295;-79
2023/04/20 02:43:20;;;;;;;1.58;1.48;;;14.00;56.40;;;;;;5152016;27;45494;-78
2023/04/20 02:45:47;;;;;;;1.55;1.45;;;14.00;56.40;;;;;;5149208;27;45465;-77
2023/04/20 02:48:15;;;;;;;1.30;1.20;;;14.00;56.40;;;;;;5148934;27;45302;-77
2023/04/20 02:50:42;;;;;;;1.60;1.40;;;14.00;56.40;;;;;;5148995;27;45272;-77
2023/04/20 02:53:08;;;;;;;1.65;1.42;;;14.00;56.40;;;;;;5149360;27;45446;-77
2023/04/20 02:55:35;;;;;;;1.67;1.55;;;14.00;56.40;;;;;;5147971;27;45484;-77
2023/04/20 02:58:02;;;;;;;2.40;1.52;;;14.00;56.40;;;;;;5148204;27;45359;-75
2023/04/20 03:00:30;;;;;;;1.30;1.20;;;14.00;56.40;;;;;;5148985;27;45371;-78
2023/04/20 03:02:56;;;;;;;1.38;1.27;;;13.90;56.40;;;;;;5149260;27;45301;-77
2023/04/20 03:05:25;;;;;;;1.60;1.50;;;13.90;56.90;;;;;;5148496;27;46846;-77
2023/04/20 03:07:52;;;;;;;1.95;1.52;;;13.90;56.40;;;;;;5148616;27;45434;-77
2023/04/20 03:10:18;;;;;;;3.42;1.50;;;13.90;56.40;;;;;;5149115;27;45282;-77
2023/04/20 03:12:45;;;;;;;1.73;1.23;;;13.90;56.40;;;;;;5148803;27;45495;-78
2023/04/20 03:15:12;;;;;;;1.40;1.30;;;13.90;56.40;;;;;;5148395;27;45467;-77
2023/04/20 03:17:39;;;;;;;1.40;1.30;;;13.90;56.40;;;;;;5148335;27;45264;-77
2023/04/20 03:20:07;;;;;;;1.70;1.30;;;13.90;56.40;;;;;;5148351;27;45423;-77
2023/04/20 03:22:36;;;;;;;1.42;1.33;;;13.90;56.30;;;;;;5148609;27;45208;-77
2023/04/20 03:25:02;;;;;;;1.13;1.13;;;13.90;56.40;;;;;;5148214;27;46529;-78
2023/04/20 03:27:29;;;;;;;1.55;1.45;;;13.90;56.40;;;;;;5148107;27;45315;-78
2023/04/20 03:29:56;;;;;;;1.40;1.30;;;13.90;56.30;;;;;;5148196;27;45314;-78
2023/04/20 03:32:23;;;;;;;1.40;1.30;;;13.90;56.40;;;;;;5148436;27;45487;-78
2023/04/20 03:34:50;;;;;;;1.75;1.30;;;13.90;56.40;;;;;;5148557;27;46729;-78
2023/04/20 03:37:17;;;;;;;1.50;1.40;;;13.90;56.30;;;;;;5148677;27;45352;-78
2023/04/20 03:39:45;;;;;;;1.52;1.40;;;13.80;56.30;;;;;;5148138;27;45256;-78
2023/04/20 03:42:12;;;;;;;1.42;1.33;;;13.80;56.20;;;;;;5149049;27;45333;-78
2023/04/20 03:44:39;;;;;;;1.50;1.40;;;13.80;56.30;;;;;;5148538;27;46429;-78
2023/04/20 03:47:06;;;;;;;1.95;1.30;;;13.80;56.30;;;;;;5148347;27;45304;-77
2023/04/20 03:49:32;;;;;;;1.30;1.20;;;13.80;56.30;;;;;;5148877;27;45322;-78
2023/04/20 03:51:59;;;;;;;2.00;1.67;;;13.80;56.20;;;;;;5151422;27;45252;-77
2023/04/20 03:54:26;;;;;;;2.45;1.40;;;13.80;56.30;;;;;;5152893;27;47335;-78
2023/04/20 03:56:54;;;;;;;1.60;1.48;;;13.80;56.20;;;;;;5153326;27;45423;-78
2023/04/20 03:59:21;;;;;;;2.42;1.50;;;13.80;56.20;;;;;;5152405;27;45341;-78
2023/04/20 04:01:48;;;;;;;1.38;1.27;;;13.80;56.20;;;;;;5153034;27;45232;-78
2023/04/20 04:04:15;;;;;;;1.60;1.50;;;13.70;56.20;;;;;;5152394;27;48238;-78
2023/04/20 04:06:41;;;;;;;1.63;1.50;;;13.70;56.20;;;;;;5152595;27;45313;-78
2023/04/20 04:09:08;;;;;;;1.88;1.55;;;13.70;56.20;;;;;;5152109;27;45304;-78
2023/04/20 04:11:35;;;;;;;1.70;1.38;;;13.70;56.20;;;;;;5152461;27;45335;-76
2023/04/20 04:14:04;;;;;;;1.50;1.40;;;13.70;56.40;;;;;;5152862;27;45491;-78
2023/04/20 04:16:30;;;;;;;2.05;1.48;;;13.70;56.20;;;;;;5153040;27;45245;-78
2023/04/20 04:18:57;;;;;;;1.73;1.50;;;13.70;56.20;;;;;;5152696;27;45238;-77
2023/04/20 04:21:24;;;;;;;2.25;1.33;;;13.70;56.20;;;;;;5152412;27;45269;-78
2023/04/20 04:23:51;;;;;;;1.20;1.10;;;13.70;56.20;;;;;;5152782;27;45254;-78
2023/04/20 04:26:20;;;;;;;1.58;1.48;;;13.70;56.20;;;;;;5153085;27;45268;-78
2023/04/20 04:28:48;;;;;;;1.35;1.25;;;13.70;56.20;;;;;;5152897;27;45361;-78
2023/04/20 04:31:18;;;;;;;1.67;1.50;;;13.70;56.20;;;;;;5152722;27;45501;-78
2023/04/20 04:33:45;;;;;;;2.03;1.20;;;13.70;56.20;;;;;;5152207;27;45575;-78
2023/04/20 04:36:14;;;;;;;1.83;1.50;;;13.60;56.10;;;;;;5151949;27;45339;-77
2023/04/20 04:38:41;;;;;;;1.88;1.30;;;13.60;56.10;;;;;;5151499;27;45316;-77
2023/04/20 04:41:08;;;;;;;1.20;1.20;;;13.60;56.10;;;;;;5151563;27;45557;-77
2023/04/20 04:43:36;;;;;;;1.67;1.58;;;13.60;56.10;;;;;;5150617;27;46617;-77
2023/04/20 04:46:08;;;;;;;1.20;1.20;;;13.60;56.10;;;;;;5150154;27;45409;-78
2023/04/20 04:48:36;;;;;;;1.65;1.52;;;13.60;56.10;;;;;;5150574;27;45237;-77
2023/04/20 04:51:03;;;;;;;1.45;1.20;;;13.60;56.10;;;;;;5150422;27;45357;-77
2023/04/20 04:53:30;;;;;;;2.33;1.40;;;13.60;56.10;;;;;;5150102;27;46421;-77
2023/04/20 04:55:57;;;;;;;1.50;1.35;;;13.50;56.10;;;;;;5150401;27;45292;-77
2023/04/20 04:58:24;;;;;;;1.55;1.42;;;13.50;56.00;;;;;;5150905;27;45388;-77
2023/04/20 05:00:51;;;;;;;1.30;1.20;;;13.50;56.00;;;;;;5150693;27;45387;-76
2023/04/20 05:03:17;;;;;;;1.50;1.40;;;13.50;56.00;;;;;;5149585;27;45519;-77
2023/04/20 05:05:46;;;;;;;3.40;1.50;;;13.50;56.00;;;;;;5150082;27;45607;-77
2023/04/20 05:08:12;;;;;;;1.73;1.30;;;13.50;56.00;;;;;;5149436;27;45284;-76
2023/04/20 05:10:39;;;;;;;2.10;1.40;;;13.50;56.00;;;;;;5149921;27;45461;-77
2023/04/20 05:13:06;;;;;;;1.42;1.33;;;13.50;56.00;;;;;;5149703;27;46746;-76
2023/04/20 05:15:33;;;;;;;1.42;1.33;;;13.50;56.00;;;;;;5149677;27;45366;-77
2023/04/20 05:18:01;;;;;;;1.63;1.40;;;13.50;56.00;;;;;;5149904;27;45279;-77
2023/04/20 05:20:28;;;;;;;2.65;1.65;;;13.50;56.00;;;;;;5150306;27;45162;-76
2023/04/20 05:22:56;;;;;;;1.58;1.20;;;13.50;56.00;;;;;;5149772;27;45373;-77
2023/04/20 05:25:23;;;;;;;2.55;1.58;;;13.50;56.00;;;;;;5149944;27;45360;-77
2023/04/20 05:27:50;;;;;;;1.50;1.40;;;13.40;55.90;;;;;;5150334;27;45296;-77
2023/04/20 05:30:17;;;;;;;2.33;1.65;;;13.40;56.00;;;;;;5149762;27;45255;-77
2023/04/20 05:32:43;;;;;;;1.75;1.50;;;13.40;55.90;;;;;;5149416;27;45524;-77
2023/04/20 05:35:10;;;;;;;1.40;1.30;;;13.40;56.00;;;;;;5149546;27;45249;-77
2023/04/20 05:37:37;;;;;;;2.75;1.52;;;13.40;56.00;;;;;;5149489;27;45425;-76
2023/04/20 05:40:08;;;;;;;1.92;1.38;;;13.40;55.90;;;;;;5149712;27;45306;-77
2023/04/20 05:42:34;;;;;;;1.80;1.42;;;13.40;55.90;;;;;;5149584;27;45296;-77
2023/04/20 05:45:01;;;;;;;1.40;1.30;;;13.40;55.90;;;;;;5149779;27;45329;-78
2023/04/20 05:47:28;;;;;;;1.98;1.42;;;13.40;55.90;;;;;;5150191;27;45380;-77
2023/04/20 05:49:55;;;;;;;2.00;1.38;;;13.40;56.00;;;;;;5151141;27;45292;-77
2023/04/20 05:52:22;;;;;;;2.25;1.30;;;13.40;56.00;;;;;;5150123;27;46412;-77
2023/04/20 05:54:49;;;;;;;1.40;1.30;;;13.40;56.00;;;;;;5150438;27;45224;-77
2023/04/20 05:57:17;;;;;;;2.22;1.73;;;13.40;55.90;;;;;;5150117;27;45366;-77
2023/04/20 05:59:44;;;;;;;1.52;1.42;;;13.40;55.90;;;;;;5150479;27;45506;-77
2023/04/20 06:02:11;;;;;;;1.83;1.40;;;13.40;55.90;;;;;;5149774;27;48448;-77
2023/04/20 06:04:38;;;;;;;1.20;1.10;;;13.40;55.90;;;;;;5150210;27;45318;-77
2023/04/20 06:07:04;;;;;;;1.65;1.55;;;13.40;55.90;;;;;;5150299;27;45374;-77
2023/04/20 06:09:31;;;;;;;1.70;1.60;;;13.40;55.90;;;;;;5149834;27;45294;-77
2023/04/20 06:11:59;;;;;;;1.35;1.25;;;13.40;55.80;;;;;;5149799;27;47984;-77
2023/04/20 06:14:27;;;;;;;1.88;1.30;;;13.40;55.80;;;;;;5150193;27;45363;-78
2023/04/20 06:16:54;;;;;;;1.90;1.63;;;13.40;55.80;;;;;;5150047;27;45268;-78
2023/04/20 06:19:21;;;;;;;1.70;1.35;;;13.30;55.70;;;;;;5150464;27;45194;-77
2023/04/20 06:21:48;;;;;;;1.75;1.65;;;13.30;55.70;;;;;;5149543;27;45293;-77
2023/04/20 06:24:15;;;;;;;2.05;1.50;;;13.40;55.70;;;;;;5150014;27;45385;-78
2023/04/20 06:26:42;;;;;;;1.50;1.30;;;13.40;55.80;;;;;;5149734;27;45436;-77
2023/04/20 06:29:08;;;;;;;1.50;1.40;;;13.40;55.70;;;;;;5150010;27;45423;-77
2023/04/20 06:31:37;;;;;;;1.60;1.50;;;13.40;55.70;;;;;;5148935;27;46733;-77
2023/04/20 06:34:03;;;;;;;2.00;1.63;;;13.40;55.60;;;;;;5148506;27;45351;-77
2023/04/20 06:36:31;;;;;;;2.80;1.23;;;13.30;55.60;;;;;;5148502;27;45335;-77
2023/04/20 06:38:58;;;;;;;1.98;1.58;;;13.40;55.60;;;;;;5149079;27;45298;-78
2023/04/20 06:41:25;;;;;;;1.55;1.45;;;13.40;55.60;;;;;;5148728;27;45310;-77
2023/04/20 06:43:51;;;;;;;1.92;1.50;;;13.40;55.70;;;;;;5149024;27;45283;-78
2023/04/20 06:46:18;;;;;;;1.60;1.50;;;13.40;55.60;;;;;;5148451;27;45348;-77
2023/04/20 06:48:46;;;;;;;1.92;1.42;;;13.40;55.60;;;;;;5148472;27;45308;-77
2023/04/20 06:51:13;;;;;;;1.75;1.50;;;13.40;55.60;;;;;;5147887;27;46743;-77
2023/04/20 06:53:40;;;;;;;1.52;1.42;;;13.40;55.60;;;;;;5147979;27;45242;-77
2023/04/20 06:56:08;;;;;;;1.95;1.40;;;13.40;55.60;;;;;;5148153;27;45335;-77
2023/04/20 06:58:34;;;;;;;1.95;1.40;;;13.40;55.60;;;;;;5148188;27;45378;-77
2023/04/20 07:01:02;;;;;;;2.33;1.42;;;13.40;55.50;;;;;;5147769;27;46422;-77
2023/04/20 07:03:29;;;;;;;2.42;1.70;;;13.40;55.50;;;;;;5147803;27;45469;-75
2023/04/20 07:05:57;;;;;;;1.50;1.40;;;13.40;55.60;;;;;;5148244;27;45236;-77
2023/04/20 07:08:24;;;;;;;1.40;1.40;;;13.40;55.50;;;;;;5148637;27;45334;-77
2023/04/20 07:10:51;;;;;;;1.50;1.35;;;13.40;55.50;;;;;;5147742;27;46686;-78
2023/04/20 07:13:17;;;;;;;1.40;1.30;;;13.40;55.50;;;;;;5147931;27;45417;-77
2023/04/20 07:15:45;;;;;;;1.38;1.27;;;13.40;55.50;;;;;;5147885;27;45255;-78
2023/04/20 07:18:12;;;;;;;2.65;1.50;;;13.40;55.60;;;;;;5147803;27;45294;-77
2023/04/20 07:20:39;;;;;;;1.40;1.30;;;13.40;55.50;;;;;;5147398;27;46777;-78
2023/04/20 07:23:07;;;;;;;1.45;1.35;;;13.40;55.50;;;;;;5147576;27;45334;-78
2023/04/20 07:25:33;;;;;;;1.70;1.40;;;13.40;55.50;;;;;;5147826;27;45331;-77
2023/04/20 07:28:00;;;;;;;1.85;1.20;;;13.40;55.50;;;;;;5151369;27;45181;-77
2023/04/20 07:30:27;;;;;;;1.33;1.10;;;13.40;55.50;;;;;;5151152;27;46706;-77
2023/04/20 07:32:54;;;;;;;1.50;1.40;;;13.40;55.50;;;;;;5151469;27;45351;-78
2023/04/20 07:35:21;;;;;;;2.17;1.30;;;13.40;55.50;;;;;;5151457;27;45429;-78
2023/04/20 07:37:48;;;;;;;1.20;1.13;;;13.40;55.50;;;;;;5151686;27;45369;-78
2023/04/20 07:40:16;;;;;;;1.60;1.40;;;13.40;55.50;;;;;;5151031;27;45491;-77
2023/04/20 07:42:43;;;;;;;2.22;1.38;;;13.40;55.50;;;;;;5151273;27;45318;-77
2023/04/20 07:45:11;;;;;;;2.25;1.48;;;13.40;55.50;;;;;;5151086;27;45492;-78
2023/04/20 07:47:38;;;;;;;2.60;1.38;;;13.40;55.50;;;;;;5151382;27;45221;-77
2023/04/20 07:50:05;;;;;;;1.65;1.35;;;13.40;55.50;;;;;;5150642;27;46538;-78
2023/04/20 07:52:32;;;;;;;1.50;1.40;;;13.40;55.50;;;;;;5150921;27;45328;-77
2023/04/20 07:54:59;;;;;;;1.90;1.48;;;13.40;55.50;;;;;;5150812;27;45450;-76
2023/04/20 07:57:28;;;;;;;1.33;1.20;;;13.40;55.50;;;;;;5151089;27;45403;-77
2023/04/20 07:59:55;;;;;;;1.33;1.23;;;13.40;55.40;;;;;;5150534;27;46387;-77
2023/04/20 08:02:22;;;;;;;2.28;1.50;;;13.40;55.40;;;;;;5150769;27;45290;-78
2023/04/20 08:04:48;;;;;;;1.98;1.40;;;13.40;55.40;;;;;;5150977;27;45359;-77
2023/04/20 08:07:16;;;;;;;1.40;1.30;;;13.40;55.30;;;;;;5151073;27;45592;-77
2023/04/20 08:09:43;;;;;;;2.03;1.60;;;13.40;55.30;;;;;;5150403;27;46639;-77
2023/04/20 08:12:10;;;;;;;1.58;1.48;;;13.50;55.40;;;;;;5150712;27;45248;-78
2023/04/20 08:14:39;;;;;;;1.75;1.45;;;13.50;55.30;;;;;;5151464;27;45273;-78
2023/04/20 08:17:06;;;;;;;4.55;1.50;;;13.50;55.30;;;;;;5151990;27;45364;-78
2023/04/20 08:19:32;;;;;;;1.42;1.33;;;13.50;55.30;;;;;;5152056;27;46480;-78
2023/04/20 08:21:59;;;;;;;2.13;1.23;;;13.50;55.20;;;;;;5151046;27;45253;-76
2023/04/20 08:24:26;;;;;;;1.52;1.15;;;13.50;55.10;;;;;;5150992;27;45256;-78
2023/04/20 08:26:53;;;;;;;1.55;1.45;;;13.50;55.20;;;;;;5151205;27;45399;-78
2023/04/20 08:29:20;;;;;;;1.63;1.42;;;13.50;55.10;;;;;;5150701;27;45537;-78
2023/04/20 08:31:48;;;;;;;1.27;1.13;;;13.50;55.10;;;;;;5150793;27;45484;-78
2023/04/20 08:34:15;;;;;;;2.17;1.30;;;13.60;55.20;;;;;;5151071;27;45273;-78
2023/04/20 08:36:42;;;;;;;1.40;1.30;;;13.60;55.10;;;;;;5151347;27;45435;-78
2023/04/20 08:39:11;;;;;;;1.60;1.50;;;13.60;55.10;;;;;;5149676;27;45714;-78
2023/04/20 08:41:37;;;;;;;1.50;1.40;;;13.60;55.00;;;;;;5151114;27;45330;-78
2023/04/20 08:44:04;;;;;;;1.58;1.48;;;13.60;55.00;;;;;;5151327;27;45334;-78
2023/04/20 08:46:31;;;;;;;1.33;1.23;;;13.60;55.00;;;;;;5151420;27;45258;-78
2023/04/20 08:49:00;;;;;;;1.90;1.52;;;13.70;55.00;;;;;;5151224;27;45268;-79
2023/04/20 08:51:27;;;;;;;2.22;1.25;;;13.70;54.90;;;;;;5151286;27;45417;-78
2023/04/20 08:53:54;;;;;;;1.30;1.20;;;13.70;54.90;;;;;;5151200;27;45373;-79
2023/04/20 08:56:31;;;;;;;1.65;1.55;;;13.70;55.00;;;;;;5151256;27;45243;-78
2023/04/20 08:58:58;;;;;;;2.05;1.50;;;13.70;54.90;;;;;;5151342;27;46316;-79
2023/04/20 09:01:27;;;;;;;1.73;1.40;;;13.70;54.90;;;;;;5151020;27;45418;-78
2023/04/20 09:03:54;;;;;;;2.42;1.20;;;13.70;54.90;;;;;;5151934;27;45397;-79
2023/04/20 09:06:22;;;;;;;1.38;1.25;;;13.70;55.00;;;;;;5151700;27;45532;-79
2023/04/20 09:08:49;;;;;;;1.38;1.27;;;13.70;54.90;;;;;;5151210;27;46399;-79
2023/04/20 09:11:23;;;;;;;1.30;1.20;;;13.70;54.90;;;;;;5148640;27;45501;-79
2023/04/20 09:14:00;;;;;;;2.28;1.35;;;13.70;54.90;;;;;;5151244;27;45377;-78
2023/04/20 09:16:27;;;;;;;1.30;1.20;;;13.70;54.90;;;;;;5151206;27;45454;-78
2023/04/20 09:18:54;;;;;;;1.45;1.35;;;13.80;55.50;;;;;;5150970;27;45449;-78
2023/04/20 09:21:23;;;;;;;2.00;1.20;;;13.80;54.90;;;;;;5150329;27;45338;-78
2023/04/20 09:23:59;;;;;;;1.50;1.40;;;13.80;55.00;;;;;;5150591;27;45386;-79
2023/04/20 09:26:26;;;;;;;1.63;1.38;;;13.80;55.00;;;;;;5150557;27;45528;-78
2023/04/20 09:28:53;;;;;;;1.58;1.40;;;13.70;54.90;;;;;;5149920;27;46755;-79
2023/04/20 09:31:20;;;;;;;1.65;1.55;;;13.80;55.10;;;;;;5150079;27;45342;-79
2023/04/20 09:33:56;;;;;;;1.50;1.40;;;13.80;55.00;;;;;;5150483;27;45331;-79
2023/04/20 09:36:24;;;;;;;1.52;1.42;;;13.80;55.00;;;;;;5150708;27;45261;-79
2023/04/20 09:39:03;;;;;;;1.15;1.05;;;13.80;55.00;;;;;;5150173;27;45346;-78
2023/04/20 09:41:30;;;;;;;1.48;1.35;;;13.80;54.90;;;;;;5150233;27;45374;-79
2023/04/20 09:43:57;;;;;;;1.52;1.30;;;13.80;54.90;;;;;;5149587;27;45333;-78
2023/04/20 09:46:23;;;;;;;1.35;1.25;;;13.90;54.90;;;;;;5149780;27;45360;-79
2023/04/20 09:48:50;;;;;;;1.40;1.30;;;13.90;54.90;;;;;;5149809;27;45632;-78
2023/04/20 09:51:17;;;;;;;1.42;1.33;;;13.90;54.80;;;;;;5149722;27;45394;-78
2023/04/20 09:53:45;;;;;;;2.35;1.13;;;13.90;54.80;;;;;;5150274;27;45339;-78
2023/04/20 09:56:13;;;;;;;3.13;1.40;;;13.90;54.70;;;;;;5150104;27;45308;-78
2023/04/20 09:58:40;;;;;;;3.28;1.50;;;13.90;54.80;;;;;;5150143;27;45753;-78
2023/04/20 10:01:09;;;;;;;1.42;1.33;;;13.90;54.70;;;;;;5149863;27;45357;-78
2023/04/20 10:03:36;;;;;;;1.30;1.20;;;14.00;54.70;;;;;;5149302;27;45289;-79
2023/04/20 10:06:03;;;;;;;1.38;1.27;;;14.00;54.70;;;;;;5149649;27;45477;-78
2023/04/20 10:08:40;;;;;;;1.45;1.27;;;14.00;54.70;;;;;;5149121;27;46365;-76
2023/04/20 10:11:08;;;;;;;1.27;1.17;;;14.00;54.80;;;;;;5150285;27;45391;-76
2023/04/20 10:13:37;;;;;;;4.25;1.55;;;14.00;54.80;;;;;;5150029;27;45370;-79
2023/04/20 10:16:04;;;;;;;12.75;1.70;;;14.00;55.20;;;;;;5149641;27;45240;-73
2023/04/20 10:18:31;;;;;;;2.15;1.38;;;14.10;55.30;;;;;;5148248;27;47329;-72
2023/04/20 10:21:05;;;;;;;6.72;1.52;;;14.10;55.20;;;;;;5148477;27;45330;-74
2023/04/20 10:23:31;;;;;;;1.10;1.10;;;14.10;55.10;;;;;;5148460;27;45441;-73
2023/04/20 10:25:59;;;;;;;1.83;1.50;;;14.20;54.90;;;;;;5148625;27;45458;-73
2023/04/20 10:28:39;;;;;;;9.38;1.63;;;14.30;54.70;;;;;;5148429;27;45453;-72
2023/04/20 10:31:07;;;;;;;2.63;1.45;;;14.40;54.60;;;;;;5148638;27;45341;-73
2023/04/20 10:33:34;;;;;;;4.25;2.15;;;14.40;54.60;;;;;;5149472;27;45231;-79
2023/04/20 10:36:01;;;;;;;58.95;49.65;;;14.50;54.30;;;;;;5150120;27;45252;-79
2023/04/20 10:38:29;;;;;;;32.60;27.08;;;14.50;54.30;;;;;;5149296;27;45255;-79
2023/04/20 10:40:56;;;;;;;18.90;15.43;;;14.60;54.10;;;;;;5150618;27;45361;-80
2023/04/20 10:43:23;;;;;;;14.20;12.30;;;14.60;53.80;;;;;;5150163;27;45328;-80
2023/04/20 10:45:52;;;;;;;18.45;16.38;;;14.60;53.60;;;;;;5149960;27;45411;-81
2023/04/20 10:48:19;;;;;;;14.95;12.20;;;14.60;53.60;;;;;;5149423;27;46580;-80
2023/04/20 10:50:45;;;;;;;15.88;12.48;;;14.60;54.10;;;;;;5150360;27;45322;-79
2023/04/20 10:53:20;;;;;;;16.85;13.43;;;14.60;53.60;;;;;;5149825;27;45324;-79
2023/04/20 10:55:46;;;;;;;13.18;10.88;;;14.60;53.60;;;;;;5149855;27;45365;-80
2023/04/20 10:58:23;;;;;;;13.23;10.25;;;14.60;53.60;;;;;;5149558;27;45314;-80
2023/04/20 11:01:01;;;;;;;11.90;10.40;;;14.60;53.70;;;;;;5148606;27;45327;-80
2023/04/20 11:03:28;;;;;;;11.38;10.15;;;14.60;53.70;;;;;;5150112;27;45233;-80
2023/04/20 11:05:59;;;;;;;11.35;9.88;;;14.60;53.70;;;;;;5149436;27;45253;-80
2023/04/20 11:08:36;;;;;;;12.25;10.57;;;14.60;53.80;;;;;;5149299;27;45909;-80
2023/04/20 11:11:03;;;;;;;14.27;9.65;;;14.50;54.40;;;;;;5148997;27;45297;-80
2023/04/20 11:13:29;;;;;;;12.30;10.75;;;14.50;53.80;;;;;;5149512;27;45265;-80
2023/04/20 11:15:56;;;;;;;12.02;10.82;;;14.50;53.90;;;;;;5150616;27;45332;-78
2023/04/20 11:18:24;;;;;;;12.07;9.70;;;14.50;53.90;;;;;;5148826;27;46757;-77
2023/04/20 11:20:51;;;;;;;12.68;10.45;;;14.50;53.90;;;;;;5149938;27;45385;-80
2023/04/20 11:23:19;;;;;;;11.32;9.82;;;14.50;54.00;;;;;;5148301;27;45334;-79
2023/04/20 11:25:50;;;;;;;13.80;9.77;;;14.50;54.20;;;;;;5148935;27;45317;-78
2023/04/20 11:28:17;;;;;;;9.88;6.97;;;14.50;54.40;;;;;;5148193;27;46379;-77
2023/04/20 11:30:44;;;;;;;6.10;4.90;;;14.50;54.20;;;;;;5146681;27;45362;-78
2023/04/20 11:33:12;;;;;;;3.72;3.35;;;14.50;54.10;;;;;;5127535;27;45298;-77
2023/04/20 11:35:41;;;;;;;3.40;3.10;;;14.40;54.00;;;;;;5127685;27;45465;-77
2023/04/20 11:38:08;;;;;;;4.25;3.03;;;14.40;54.00;;;;;;5128329;27;45499;-78
2023/04/20 11:40:35;;;;;;;4.25;3.10;;;14.50;54.00;;;;;;5147796;27;45318;-78
2023/04/20 11:43:03;;;;;;;4.82;4.18;;;14.40;54.10;;;;;;5140923;27;45313;-79
2023/04/20 11:45:32;;;;;;;4.70;4.10;;;14.40;54.30;;;;;;5136616;27;44804;-75
2023/04/20 11:47:59;;;;;;;6.82;4.38;;;14.40;54.40;;;;;;5128735;27;46369;-76
2023/04/20 11:50:26;;;;;;;6.30;4.57;;;14.50;54.50;;;;;;5127308;27;45316;-78
2023/04/20 11:52:54;;;;;;;8.93;4.43;;;14.50;54.50;;;;;;5128137;27;45575;-79
2023/04/20 11:55:21;;;;;;;9.32;4.20;;;14.50;54.50;;;;;;5128119;27;45341;-79
2023/04/20 11:57:48;;;;;;;15.10;4.40;;;14.50;54.50;;;;;;5127734;27;45257;-78
2023/04/20 12:00:16;;;;;;;11.30;4.38;;;14.60;54.60;;;;;;5129311;27;45289;-79
2023/04/20 12:02:43;;;;;;;6.80;4.20;;;14.60;54.60;;;;;;5127196;27;45386;-79
2023/04/20 12:05:11;;;;;;;5.70;3.90;;;14.60;54.60;;;;;;5128076;27;45451;-80
2023/04/20 12:07:37;;;;;;;5.60;3.85;;;14.70;54.60;;;;;;5128070;27;45308;-79
2023/04/20 12:10:07;;;;;;;6.05;3.83;;;14.70;54.50;;;;;;5127658;27;45347;-80
2023/04/20 12:12:34;;;;;;;7.78;3.97;;;14.70;54.50;;;;;;5133671;27;45315;-80
2023/04/20 12:15:01;;;;;;;4.95;3.35;;;14.80;54.40;;;;;;5135172;27;45420;-78
2023/04/20 12:17:27;;;;;;;7.85;3.72;;;14.80;54.50;;;;;;5131556;27;46418;-80
2023/04/20 12:19:56;;;;;;;4.22;3.83;;;14.80;54.50;;;;;;5131676;27;45353;-79
2023/04/20 12:22:23;;;;;;;8.40;3.80;;;14.90;54.50;;;;;;5130944;27;45346;-80
2023/04/20 12:24:50;;;;;;;5.28;3.50;;;14.90;54.40;;;;;;5131187;27;45370;-81
2023/04/20 12:27:18;;;;;;;5.20;3.85;;;14.90;54.40;;;;;;5131030;27;46689;-80
2023/04/20 12:29:45;;;;;;;7.43;3.72;;;14.90;54.40;;;;;;5130486;27;45309;-79
2023/04/20 12:32:12;;;;;;;13.32;3.40;;;14.90;54.50;;;;;;5130498;27;45365;-80
2023/04/20 12:34:39;;;;;;;10.77;4.03;;;15.00;54.60;;;;;;5130641;27;45225;-78
2023/04/20 12:37:06;;;;;;;7.70;3.80;;;15.00;54.70;;;;;;5132210;27;46733;-79
2023/04/20 12:39:32;;;;;;;6.15;3.75;;;15.00;54.70;;;;;;5130174;27;45434;-80
2023/04/20 12:42:01;;;;;;;6.28;3.42;;;15.00;54.60;;;;;;5130340;27;45284;-80
2023/04/20 12:44:29;;;;;;;8.55;3.80;;;15.00;54.60;;;;;;5130426;27;45604;-78
2023/04/20 12:46:56;;;;;;;6.45;3.28;;;15.00;54.60;;;;;;5130001;27;45646;-79